ADDS METAR Data INFO
IDs: Format: Raw Decoded Include TAF

Data at: 0927 UTC 17 Oct 2017

KMTN 170909Z AUTO 00000KT 10SM CLR 05/03 A3033 RMK AO2
KMTN 170848Z AUTO 00000KT 10SM CLR 05/04 A3032 RMK AO2
KMTN 170827Z AUTO 00000KT 10SM CLR 05/03 A3031 RMK AO2
KMTN 170809Z AUTO 00000KT 10SM CLR 06/04 A3031 RMK AO2
KMTN 170748Z AUTO 00000KT 10SM CLR 06/04 A3030 RMK AO2
KMTN 170727Z AUTO 00000KT 10SM CLR 06/04 A3030 RMK AO2
KMTN 170709Z AUTO 00000KT 10SM CLR 06/04 A3030 RMK AO2
KMTN 170648Z AUTO 00000KT 10SM CLR 08/03 A3029 RMK AO2
KMTN 170627Z AUTO 00000KT 10SM CLR 08/03 A3029 RMK AO2
KMTN 170609Z AUTO 00000KT 10SM CLR 08/03 A3028 RMK AO2
KMTN 170548Z AUTO 32003KT 10SM CLR 08/04 A3028 RMK AO2
KMTN 170527Z AUTO 00000KT 10SM CLR 09/04 A3028 RMK AO2
KMTN 170509Z AUTO 00000KT 10SM CLR 09/04 A3028 RMK AO2
KMTN 170448Z AUTO 31005KT 10SM CLR 10/03 A3027 RMK AO2
KMTN 170427Z AUTO 31005KT 10SM CLR 10/03 A3027 RMK AO2
KMTN 170409Z AUTO 30006KT 10SM CLR 09/04 A3027 RMK AO2
KMTN 170348Z AUTO 30005KT 10SM CLR 10/04 A3026 RMK AO2
KMTN 170327Z AUTO 30005KT 10SM CLR 10/04 A3025 RMK AO2
KMTN 170309Z AUTO 30007KT 10SM CLR 10/05 A3025 RMK AO2
KMTN 170248Z AUTO 30006KT 10SM CLR 10/05 A3024 RMK AO2
KMTN 170227Z AUTO 29006KT 10SM CLR 10/05 A3024 RMK AO2
KMTN 170209Z AUTO 29006KT 10SM CLR 09/05 A3023 RMK AO2
KMTN 170150Z 30006KT 10SM SKC 10/06 A3023 RMK LAST
KMTN 170050Z 30006KT 10SM SKC 11/06 A3020
KMTN 162350Z 31005KT 10SM SKC 12/05 A3018
KMTN 162245Z 32003KT 10SM SKC 14/06 A3015
KMTN 162150Z 31006G14KT 10SM FEW030 17/04 A3013
KMTN 162050Z 30010G17KT 10SM FEW050 18/06 A3012
KMTN 161950Z 32010KT 10SM SCT050 BKN100 17/07 A3011
KMTN 161850Z 31009G17KT 10SM SCT047 BKN100 17/08 A3010
KMTN 161745Z 30013G21KT 10SM BKN030 BKN150 15/08 A3010
KMTN 161648Z 32010G15KT 10SM BKN030 SCT100 16/09 A3010
KMTN 161557Z AUTO 29014KT 10SM SCT045 15/08 A3010 RMK AO2
KMTN 161548Z AUTO 29013G19KT 10SM SCT041 BKN046 16/08 A3010 RMK AO2
KMTN 161545Z 31011G19KT 10SM BKN020 BKN070 16/08 A3010
KMTN 161527Z AUTO 30014KT 10SM SCT040 OVC046 15/08 A3010 RMK AO2
KMTN 161509Z AUTO 31009G18KT 10SM OVC042 15/09 A3009 RMK AO2
KMTN 161445Z 32014G20KT 10SM BKN020 BKN070 16/09 A3008
KMTN 161345Z 31010G16KT 10SM FEW015 BKN070 16/11 A3008
KMTN 161245Z 31011KT 10SM SCT008 BKN030 16/12 A3006
KMTN 161145Z 31004KT 10SM FEW020 BKN040 16/16 A3000
KMTN 161045Z 00000KT 7SM -RA BKN095 17/17 A2997
KMTN 160945Z 00000KT 7SM -RA OVC110 17/17 A2997 RMK FIRST
KMTN 160150Z 17005KT 10SM SKC 22/21 A2987 RMK LAST
KMTN 160050Z 17006G10KT 10SM SKC 22/21 A2987
KMTN 152350Z 16005KT 10SM SKC 22/21 A2988
KMTN 152250Z 16007KT 10SM SKC 22/21 A2989